Fort Snelling, Minnesota
Current Conditions -  °F | °C
As of 5:53 PM on Sunday 23 Nov 2014 (Local Time) from KMSP Reporting Station
Overcast Overcast  
Wind Chill: 33°   Ceiling: 3600
Heat Index: 39°   Visibility: 9mi
Dew Point: 36°   Wind: 8mph
Humidity: 89%   Direction: 300°WNW
Pressure: 29.4"   Gusts: NA
Location:  44.8695°N, 93.2126°W
Report Text: KMSP 232353Z 30007KT 9SM FEW012 OVC036 04/02 A2940 RMK AO2 SLP960 T00390022 10083 20039 53004
Loading
Personal Weather Stations






























Interactive Weather Map New forecast layout! Learn more

10-Day Weather Forecast

Advertisements
Track Severe Weather on mobile